Time;durP1;ratioP1;P1;durP2;ratioP2;P2;SDS_P1;SDS_P2;PMS_P1;PMS_P2;Temp;Humidity;BMP_temperature;BMP_pressure;BME280_temperature;BME280_humidity;BME280_pressure;Samples;Min_cycle;Max_cycle;Signal;HPM_P1;HPM_P2
2021/05/25 00:02:18;;;;;;;;;;;25.80;99.90;;;;;;1832312;77;20168;-88
2021/05/25 00:04:48;;;;;;;;;;;25.80;99.90;;;;;;1850308;78;20190;-89
2021/05/25 00:07:18;;;;;;;;;;;25.80;99.90;;;;;;1845280;77;20162;-90
2021/05/25 00:09:48;;;;;;;;;;;25.80;99.90;;;;;;1842538;78;20206;-90
2021/05/25 00:12:18;;;;;;;;;;;25.80;99.90;;;;;;1843276;78;20138;-78
2021/05/25 00:14:49;;;;;;;;;;;25.80;99.90;;;;;;1847351;77;20154;-78
2021/05/25 00:17:18;;;;;;;;;;;25.90;99.90;;;;;;1836128;76;20182;-79
2021/05/25 00:19:48;;;;;;;;;;;25.90;99.90;;;;;;1840462;78;20277;-79
2021/05/25 00:22:18;;;;;;;;;;;25.90;99.90;;;;;;1832500;77;20210;-79
2021/05/25 00:24:47;;;;;;;;;;;25.90;99.90;;;;;;1834996;77;20180;-79
2021/05/25 00:27:17;;;;;;;;;;;25.90;99.90;;;;;;1831655;78;20182;-78
2021/05/25 00:29:47;;;;;;;;;;;25.90;99.90;;;;;;1834126;77;20175;-78
2021/05/25 00:32:17;;;;;;;;;;;25.90;99.90;;;;;;1837120;77;20175;-79
2021/05/25 00:34:48;;;;;;;;;;;25.90;99.90;;;;;;1824441;77;20217;-78
2021/05/25 00:37:18;;;;;;;;;;;25.80;99.90;;;;;;1839158;77;20275;-78
2021/05/25 00:39:47;;;;;;;;;;;25.80;99.90;;;;;;1852761;77;20472;-79
2021/05/25 00:42:17;;;;;;;;;;;25.70;99.90;;;;;;1825905;77;20228;-78
2021/05/25 00:44:47;;;;;;;;;;;25.60;99.90;;;;;;1829640;77;20266;-77
2021/05/25 00:47:20;;;;;;;;;;;25.70;99.90;;;;;;1836633;77;20163;-78
2021/05/25 00:49:50;;;;;;;;;;;25.70;99.90;;;;;;1763039;80;20319;-77
2021/05/25 00:52:20;;;;;;;;;;;25.70;99.90;;;;;;1831248;77;20168;-78
2021/05/25 00:54:49;;;;;;;;;;;25.60;99.90;;;;;;1811871;79;20196;-77
2021/05/25 00:57:20;;;;;;;;;;;25.70;99.90;;;;;;1809325;79;20180;-80
2021/05/25 00:59:50;;;;;;;;;;;25.70;99.90;;;;;;1791436;80;20694;-80
2021/05/25 01:02:20;;;;;;;;;;;25.80;99.90;;;;;;1794812;79;20199;-80
2021/05/25 01:04:50;;;;;;;;;;;25.80;99.90;;;;;;1776361;78;20226;-80
2021/05/25 01:07:21;;;;;;;;;;;25.80;99.90;;;;;;1833779;78;20246;-81
2021/05/25 01:09:53;;;;;;;;;;;25.80;99.90;;;;;;1821159;78;20535;-81
2021/05/25 01:12:27;;;;;;;;;;;25.80;99.90;;;;;;1813420;78;20496;-83
2021/05/25 01:14:59;;;;;;;;;;;25.80;99.90;;;;;;1822326;78;20477;-81
2021/05/25 01:17:27;;;;;;;;;;;25.90;99.90;;;;;;1800983;78;20454;-81
2021/05/25 01:19:58;;;;;;;;;;;25.90;99.90;;;;;;1819399;77;20415;-81
2021/05/25 01:22:28;;;;;;;;;;;26.00;99.90;;;;;;1822291;78;20198;-79
2021/05/25 01:24:58;;;;;;;;;;;26.00;99.90;;;;;;1821931;78;20166;-81
2021/05/25 01:27:29;;;;;;;;;;;26.00;99.90;;;;;;1781444;79;20196;-81
2021/05/25 01:29:58;;;;;;;;;;;26.10;99.90;;;;;;1835553;77;20178;-80
2021/05/25 01:32:28;;;;;;;;;;;26.10;99.90;;;;;;1846280;78;20642;-80
2021/05/25 01:34:59;;;;;;;;;;;26.10;99.90;;;;;;1849347;76;20206;-80
2021/05/25 01:37:29;;;;;;;;;;;26.20;99.90;;;;;;1840627;78;20229;-82
2021/05/25 01:40:00;;;;;;;;;;;26.20;99.90;;;;;;1843379;76;20177;-82
2021/05/25 01:42:31;;;;;;;;;;;26.30;99.90;;;;;;1842321;77;20460;-82
2021/05/25 01:45:02;;;;;;;;;;;26.30;99.90;;;;;;1838920;77;20239;-78
2021/05/25 01:47:32;;;;;;;;;;;26.30;99.90;;;;;;1845890;78;20135;-79
2021/05/25 01:50:12;;;;;;;;;;;26.40;99.90;;;;;;1843544;76;20107;-81
2021/05/25 01:52:33;;;;;;;;;;;26.40;99.90;;;;;;1841061;76;20199;-82
2021/05/25 01:55:04;;;;;;;;;;;26.40;99.90;;;;;;1849744;76;20162;-79
2021/05/25 01:57:35;;;;;;;;;;;26.50;99.90;;;;;;1840217;78;20225;-81
2021/05/25 02:00:06;;;;;;;;;;;26.50;99.90;;;;;;1843690;78;20135;-81
2021/05/25 02:02:35;;;;;;;;;;;26.50;99.90;;;;;;1837598;78;20135;-82
2021/05/25 02:05:06;;;;;;;;;;;26.50;99.90;;;;;;1846056;76;20178;-81
2021/05/25 02:07:36;;;;;;;;;;;26.50;99.90;;;;;;1838090;77;20520;-82
2021/05/25 02:10:06;;;;;;;;;;;26.50;99.90;;;;;;1842877;78;20414;-81
2021/05/25 02:12:55;;;;;;;;;;;26.50;99.90;;;;;;1832136;78;20135;-81
2021/05/25 02:15:25;;;;;;;;;;;26.50;99.90;;;;;;1853151;76;20210;-83
2021/05/25 02:17:56;;;;;;;;;;;26.50;99.90;;;;;;1858434;77;20174;-82
2021/05/25 02:20:25;;;;;;;;;;;26.50;99.90;;;;;;1856563;76;20205;-82
2021/05/25 02:22:56;;;;;;;;;;;26.50;99.90;;;;;;1836243;77;20568;-81
2021/05/25 02:25:29;;;;;;;;;;;26.50;99.90;;;;;;1835363;78;20191;-80
2021/05/25 02:28:01;;;;;;;;;;;26.50;99.90;;;;;;1841441;78;20162;-83
2021/05/25 02:30:31;;;;;;;;;;;26.50;99.90;;;;;;1836543;78;20156;-80
2021/05/25 02:33:02;;;;;;;;;;;26.50;99.90;;;;;;1841018;78;20190;-81
2021/05/25 02:35:33;;;;;;;;;;;26.50;99.90;;;;;;1841508;76;20162;-82
2021/05/25 02:38:04;;;;;;;;;;;26.40;99.90;;;;;;1836908;78;20174;-80
2021/05/25 02:40:34;;;;;;;;;;;26.40;99.90;;;;;;1798352;78;20190;-80
2021/05/25 02:43:04;;;;;;;;;;;26.40;99.90;;;;;;1816302;79;20197;-81
2021/05/25 02:45:34;;;;;;;;;;;26.30;99.90;;;;;;1817366;79;20189;-82
2021/05/25 02:48:05;;;;;;;;;;;26.30;99.90;;;;;;1816551;79;20208;-82
2021/05/25 02:50:34;;;;;;;;;;;26.20;99.90;;;;;;1816661;78;20235;-82
2021/05/25 02:53:04;;;;;;;;;;;26.20;99.90;;;;;;1824836;77;20406;-81
2021/05/25 02:55:36;;;;;;;;;;;26.20;99.90;;;;;;1826954;77;20222;-82
2021/05/25 02:58:08;;;;;;;;;;;26.20;99.90;;;;;;1863102;77;20213;-81
2021/05/25 03:00:39;;;;;;;;;;;26.20;99.90;;;;;;1853546;76;20190;-81
2021/05/25 03:03:18;;;;;;;;;;;26.20;99.90;;;;;;1859532;77;20181;-80
2021/05/25 03:05:45;;;;;;;;;;;26.20;99.90;;;;;;1862548;77;20213;-81
2021/05/25 03:08:17;;;;;;;;;;;26.20;99.90;;;;;;1853164;76;20201;-82
2021/05/25 03:10:48;;;;;;;;;;;26.20;99.90;;;;;;1847296;77;20229;-82
2021/05/25 03:13:19;;;;;;;;;;;26.20;99.90;;;;;;1860984;75;20335;-81
2021/05/25 03:15:50;;;;;;;;;;;26.20;99.90;;;;;;1868465;75;20193;-81
2021/05/25 03:18:21;;;;;;;;;;;26.10;99.90;;;;;;1866841;76;20204;-80
2021/05/25 03:20:51;;;;;;;;;;;26.10;99.90;;;;;;1868167;76;20173;-82
2021/05/25 03:23:21;;;;;;;;;;;26.10;99.90;;;;;;1862470;75;20237;-81
2021/05/25 03:25:54;;;;;;;;;;;26.10;99.90;;;;;;1871235;75;20232;-81
2021/05/25 03:28:22;;;;;;;;;;;26.10;99.90;;;;;;1856911;77;20463;-82
2021/05/25 03:30:53;;;;;;;;;;;26.10;99.90;;;;;;1863138;76;20122;-80
2021/05/25 03:33:23;;;;;;;;;;;26.00;99.90;;;;;;1790317;78;20227;-81
2021/05/25 03:35:53;;;;;;;;;;;26.10;99.90;;;;;;1836162;77;20190;-82
2021/05/25 03:38:23;;;;;;;;;;;26.00;99.90;;;;;;1837603;77;20401;-81
2021/05/25 03:40:53;;;;;;;;;;;26.00;99.90;;;;;;1837394;78;20120;-82
2021/05/25 03:43:23;;;;;;;;;;;26.00;99.90;;;;;;1845037;76;20457;-82
2021/05/25 03:45:53;;;;;;;;;;;26.00;99.90;;;;;;1781033;78;20205;-81
2021/05/25 03:48:23;;;;;;;;;;;26.00;99.90;;;;;;1823199;78;20246;-82
2021/05/25 03:50:53;;;;;;;;;;;26.10;99.90;;;;;;1819131;78;20199;-83
2021/05/25 03:53:25;;;;;;;;;;;26.00;99.90;;;;;;1815876;77;20137;-80
2021/05/25 03:56:06;;;;;;;;;;;26.10;99.90;;;;;;1820221;78;20226;-80
2021/05/25 04:00:57;;;;;;;;;;;26.10;99.90;;;;;;1798989;78;20193;-81
2021/05/25 04:03:28;;;;;;;;;;;26.10;99.90;;;;;;1802283;78;20244;-81
2021/05/25 04:05:58;;;;;;;;;;;26.10;99.90;;;;;;1821797;78;20400;-80
2021/05/25 04:08:28;;;;;;;;;;;26.10;99.90;;;;;;1804720;78;20181;-80
2021/05/25 04:10:59;;;;;;;;;;;26.10;99.90;;;;;;1817775;79;20207;-81
2021/05/25 04:13:29;;;;;;;;;;;26.10;99.90;;;;;;1805931;78;20237;-81
2021/05/25 04:15:59;;;;;;;;;;;26.10;99.90;;;;;;1844653;75;20264;-81
2021/05/25 04:18:31;;;;;;;;;;;26.10;99.90;;;;;;1857685;76;20166;-81
2021/05/25 04:21:01;;;;;;;;;;;26.10;99.90;;;;;;1861561;77;20236;-81
2021/05/25 04:23:31;;;;;;;;;;;26.10;99.90;;;;;;1861999;77;20337;-81
2021/05/25 04:26:01;;;;;;;;;;;26.10;99.90;;;;;;1862731;77;20193;-81
2021/05/25 04:28:31;;;;;;;;;;;26.10;99.90;;;;;;1862016;77;20189;-81
2021/05/25 04:31:01;;;;;;;;;;;26.10;99.90;;;;;;1858362;77;20244;-80
2021/05/25 04:33:32;;;;;;;;;;;26.00;99.90;;;;;;1852795;76;20225;-81
2021/05/25 04:36:02;;;;;;;;;;;26.10;99.90;;;;;;1841945;77;20387;-82
2021/05/25 04:38:32;;;;;;;;;;;26.10;99.90;;;;;;1843787;77;20196;-81
2021/05/25 04:41:01;;;;;;;;;;;26.00;99.90;;;;;;1848834;77;20252;-81
2021/05/25 04:43:31;;;;;;;;;;;26.00;99.90;;;;;;1848929;77;20281;-81
2021/05/25 04:46:01;;;;;;;;;;;26.00;99.90;;;;;;1848644;77;20177;-84
2021/05/25 04:48:31;;;;;;;;;;;26.00;99.90;;;;;;1845905;77;20213;-81
2021/05/25 04:51:02;;;;;;;;;;;26.00;99.90;;;;;;1937595;73;20234;-81
2021/05/25 04:53:33;;;;;;;;;;;26.00;99.90;;;;;;1939333;73;20190;-80
2021/05/25 04:56:03;;;;;;;;;;;26.00;99.90;;;;;;1939551;73;20503;-81
2021/05/25 04:58:33;;;;;;;;;;;26.00;99.90;;;;;;1944866;73;20392;-81
2021/05/25 05:01:03;;;;;;;;;;;26.10;99.90;;;;;;1944444;73;20204;-80
2021/05/25 05:03:33;;;;;;;;;;;26.10;99.90;;;;;;1940506;73;20106;-80
2021/05/25 05:06:02;;;;;;;;;;;26.10;99.90;;;;;;1935921;73;20572;-80
2021/05/25 05:08:32;;;;;;;;;;;26.10;99.90;;;;;;1940334;73;20426;-79
2021/05/25 05:11:02;;;;;;;;;;;26.10;99.90;;;;;;1942447;73;20134;-80
2021/05/25 05:13:32;;;;;;;;;;;26.10;99.90;;;;;;1935792;73;20414;-82
2021/05/25 05:16:02;;;;;;;;;;;26.10;99.90;;;;;;1945222;72;20511;-81
2021/05/25 05:18:32;;;;;;;;;;;26.20;99.90;;;;;;1926638;73;20184;-81
2021/05/25 05:21:02;;;;;;;;;;;26.20;99.90;;;;;;1895285;74;20237;-82
2021/05/25 05:23:32;;;;;;;;;;;26.20;99.90;;;;;;1882365;74;20226;-82
2021/05/25 05:26:04;;;;;;;;;;;26.30;99.90;;;;;;1918554;73;20307;-82
2021/05/25 05:28:33;;;;;;;;;;;26.30;99.90;;;;;;1915411;73;20217;-81
2021/05/25 05:31:04;;;;;;;;;;;26.30;99.90;;;;;;1926201;73;20288;-82
2021/05/25 05:33:34;;;;;;;;;;;26.40;99.90;;;;;;1923670;74;20174;-81
2021/05/25 05:36:04;;;;;;;;;;;26.40;99.90;;;;;;1924307;74;20160;-81
2021/05/25 05:38:37;;;;;;;;;;;26.40;99.90;;;;;;1923488;73;20218;-81
2021/05/25 05:41:08;;;;;;;;;;;26.40;99.90;;;;;;1920889;73;20455;-81
2021/05/25 05:43:38;;;;;;;;;;;26.40;99.90;;;;;;1888778;74;20208;-81
2021/05/25 05:46:08;;;;;;;;;;;26.40;99.90;;;;;;1924174;74;20176;-81
2021/05/25 05:48:38;;;;;;;;;;;26.40;99.90;;;;;;1911688;73;20268;-81
2021/05/25 05:51:08;;;;;;;;;;;26.40;99.90;;;;;;1916203;74;20482;-82
2021/05/25 05:53:37;;;;;;;;;;;26.40;99.90;;;;;;1920908;74;20503;-81
2021/05/25 05:56:07;;;;;;;;;;;26.40;99.90;;;;;;1916439;74;20150;-81
2021/05/25 05:58:37;;;;;;;;;;;26.40;99.90;;;;;;1921414;73;20169;-82
2021/05/25 06:01:08;;;;;;;;;;;26.40;99.90;;;;;;1916668;74;20180;-81
2021/05/25 06:03:38;;;;;;;;;;;26.40;99.90;;;;;;1920577;74;20221;-81
2021/05/25 06:06:08;;;;;;;;;;;26.40;99.90;;;;;;1920446;74;20244;-81
2021/05/25 06:08:39;;;;;;;;;;;26.50;99.90;;;;;;1917405;74;20217;-81
2021/05/25 06:11:09;;;;;;;;;;;26.50;99.90;;;;;;1920169;74;20211;-80
2021/05/25 06:13:40;;;;;;;;;;;26.50;99.90;;;;;;1886581;74;20490;-81
2021/05/25 06:16:10;;;;;;;;;;;26.50;99.90;;;;;;1922833;73;20515;-82
2021/05/25 06:18:40;;;;;;;;;;;26.50;99.90;;;;;;1931558;73;20276;-81
2021/05/25 06:21:10;;;;;;;;;;;26.50;99.90;;;;;;1943403;72;20500;-81
2021/05/25 06:23:41;;;;;;;;;;;26.60;99.90;;;;;;1944271;72;20169;-81
2021/05/25 06:26:11;;;;;;;;;;;26.60;99.90;;;;;;1951565;72;20199;-81
2021/05/25 06:28:41;;;;;;;;;;;26.70;99.90;;;;;;1944923;72;20220;-82
2021/05/25 06:31:11;;;;;;;;;;;26.80;99.90;;;;;;1945736;73;20186;-81
2021/05/25 06:33:41;;;;;;;;;;;26.80;99.90;;;;;;1943443;72;20628;-82
2021/05/25 06:36:11;;;;;;;;;;;26.80;99.90;;;;;;1939567;73;20228;-80
2021/05/25 06:38:40;;;;;;;;;;;26.80;99.90;;;;;;1946408;73;20199;-81
2021/05/25 06:41:10;;;;;;;;;;;26.80;99.90;;;;;;1944000;73;20159;-81
2021/05/25 06:43:40;;;;;;;;;;;26.80;99.90;;;;;;1944697;73;20185;-80
2021/05/25 06:46:10;;;;;;;;;;;26.70;99.90;;;;;;1945248;72;20158;-80
2021/05/25 06:48:40;;;;;;;;;;;26.70;99.90;;;;;;1938035;73;20202;-80
2021/05/25 06:51:09;;;;;;;;;;;26.70;99.90;;;;;;1945637;73;20128;-81
2021/05/25 06:53:39;;;;;;;;;;;26.70;99.90;;;;;;1943980;73;20188;-81
2021/05/25 06:56:10;;;;;;;;;;;26.80;99.90;;;;;;1935913;73;20150;-80
2021/05/25 06:58:40;;;;;;;;;;;26.80;99.90;;;;;;1945969;73;20471;-78
2021/05/25 07:01:10;;;;;;;;;;;26.80;99.90;;;;;;1944073;72;20226;-79
2021/05/25 07:03:41;;;;;;;;;;;26.80;99.90;;;;;;1937679;72;20230;-79
2021/05/25 07:06:11;;;;;;;;;;;26.80;99.90;;;;;;1915845;74;20244;-78
2021/05/25 07:08:42;;;;;;;;;;;26.90;99.90;;;;;;1901499;75;20159;-78
2021/05/25 07:11:11;;;;;;;;;;;26.90;99.90;;;;;;1867404;75;20420;-78
2021/05/25 07:13:41;;;;;;;;;;;27.00;99.90;;;;;;1869959;75;20594;-78
2021/05/25 07:16:13;;;;;;;;;;;27.00;99.90;;;;;;1918273;73;20129;-78
2021/05/25 07:18:43;;;;;;;;;;;27.10;99.90;;;;;;1931034;73;20261;-80
2021/05/25 07:21:13;;;;;;;;;;;27.10;99.90;;;;;;1923798;73;20491;-77
2021/05/25 07:23:43;;;;;;;;;;;27.10;99.90;;;;;;1920543;73;20205;-76
2021/05/25 07:26:14;;;;;;;;;;;27.10;99.90;;;;;;1922401;73;20267;-77
2021/05/25 07:28:44;;;;;;;;;;;27.20;99.90;;;;;;1923766;73;20211;-77
2021/05/25 07:31:14;;;;;;;;;;;27.20;99.90;;;;;;1924706;73;20219;-76
2021/05/25 07:33:44;;;;;;;;;;;27.20;99.90;;;;;;1917690;73;20126;-77
2021/05/25 07:36:14;;;;;;;;;;;27.20;99.90;;;;;;1923311;73;20181;-78
2021/05/25 07:38:46;;;;;;;;;;;27.30;99.90;;;;;;1921653;73;20181;-77
2021/05/25 07:41:15;;;;;;;;;;;27.30;99.90;;;;;;1911637;73;20173;-77
2021/05/25 07:43:45;;;;;;;;;;;27.30;99.90;;;;;;1911175;73;20181;-78
2021/05/25 07:46:22;;;;;;;;;;;27.40;99.90;;;;;;1918911;74;20282;-77
2021/05/25 07:48:47;;;;;;;;;;;27.50;99.90;;;;;;1913109;74;20264;-78
2021/05/25 07:51:17;;;;;;;;;;;27.60;99.90;;;;;;1906699;74;20179;-78
2021/05/25 07:53:47;;;;;;;;;;;27.60;99.90;;;;;;1904397;74;20141;-77
2021/05/25 07:56:17;;;;;;;;;;;27.70;99.90;;;;;;1905372;74;20126;-78
2021/05/25 07:58:47;;;;;;;;;;;27.70;99.90;;;;;;1905410;75;20454;-79
2021/05/25 08:01:17;;;;;;;;;;;27.70;99.90;;;;;;1905289;75;20226;-77
2021/05/25 08:03:46;;;;;;;;;;;27.70;99.90;;;;;;1908755;73;20212;-76
2021/05/25 08:06:16;;;;;;;;;;;27.70;99.90;;;;;;1909653;75;20594;-78
2021/05/25 08:08:46;;;;;;;;;;;27.60;99.90;;;;;;1913456;75;20503;-78
2021/05/25 08:11:16;;;;;;;;;;;27.60;99.90;;;;;;1913209;75;20208;-77
2021/05/25 08:13:46;;;;;;;;;;;27.50;99.90;;;;;;1904069;75;20523;-76
2021/05/25 08:16:19;;;;;;;;;;;27.50;99.90;;;;;;1921755;75;20118;-76
2021/05/25 08:24:14;;;;;;;;;;;27.50;99.90;;;;;;1834401;77;20238;-77
2021/05/25 08:26:43;;;;;;;;;;;27.50;99.90;;;;;;1846430;77;20233;-77
2021/05/25 08:29:15;;;;;;;;;;;27.50;99.90;;;;;;1847763;76;20123;-77
2021/05/25 08:31:45;;;;;;;;;;;27.60;99.90;;;;;;1837285;78;20199;-78
2021/05/25 08:34:15;;;;;;;;;;;27.70;99.90;;;;;;1842842;77;20197;-78
2021/05/25 08:36:45;;;;;;;;;;;27.70;99.90;;;;;;1841176;77;20211;-78
2021/05/25 08:39:15;;;;;;;;;;;27.70;99.90;;;;;;1847572;77;20495;-78
2021/05/25 08:41:45;;;;;;;;;;;27.80;99.90;;;;;;1800033;80;20275;-77
2021/05/25 08:44:15;;;;;;;;;;;27.80;99.90;;;;;;1806738;78;20286;-78
2021/05/25 08:46:47;;;;;;;;;;;27.80;99.90;;;;;;1822513;78;20189;-78
2021/05/25 08:49:18;;;;;;;;;;;27.80;99.90;;;;;;1806972;78;20182;-77
2021/05/25 08:51:48;;;;;;;;;;;27.80;99.90;;;;;;1803875;78;20218;-77
2021/05/25 08:54:19;;;;;;;;;;;27.90;99.90;;;;;;1827968;76;20180;-77
2021/05/25 08:56:49;;;;;;;;;;;28.00;99.90;;;;;;1833803;77;20224;-78
2021/05/25 08:59:19;;;;;;;;;;;28.00;99.90;;;;;;1835379;77;20501;-78
2021/05/25 09:01:50;;;;;;;;;;;28.10;99.90;;;;;;1821048;77;20235;-78
2021/05/25 09:04:19;;;;;;;;;;;28.10;99.90;;;;;;1827456;77;20238;-78
2021/05/25 09:06:50;;;;;;;;;;;28.00;99.90;;;;;;1825326;77;20211;-78
2021/05/25 09:09:20;;;;;;;;;;;28.00;99.90;;;;;;1829174;77;20476;-78
2021/05/25 09:11:51;;;;;;;;;;;28.10;99.90;;;;;;1827428;78;20642;-78
2021/05/25 09:14:21;;;;;;;;;;;28.10;99.90;;;;;;1827875;77;20286;-78
2021/05/25 09:16:51;;;;;;;;;;;28.10;99.90;;;;;;1828641;77;20186;-79
2021/05/25 09:19:21;;;;;;;;;;;28.10;99.90;;;;;;1818943;77;20187;-77
2021/05/25 09:21:51;;;;;;;;;;;28.10;99.90;;;;;;1829583;77;20239;-77
2021/05/25 09:24:22;;;;;;;;;;;28.10;99.90;;;;;;1809523;77;20149;-77
2021/05/25 09:26:58;;;;;;;;;;;28.10;99.90;;;;;;1795576;78;20443;-78
2021/05/25 09:29:24;;;;;;;;;;;28.10;99.90;;;;;;1804918;78;20173;-76
2021/05/25 09:31:54;;;;;;;;;;;28.10;99.90;;;;;;1794848;78;20312;-78
2021/05/25 09:34:25;;;;;;;;;;;28.10;99.90;;;;;;1803965;78;20137;-76
2021/05/25 09:36:56;;;;;;;;;;;28.10;99.90;;;;;;1791213;79;20172;-79
2021/05/25 09:39:27;;;;;;;;;;;28.10;99.90;;;;;;1796857;79;20182;-76
2021/05/25 09:41:58;;;;;;;;;;;28.10;99.90;;;;;;1788668;79;20213;-77
2021/05/25 09:44:28;;;;;;;;;;;28.00;99.90;;;;;;1751327;80;20224;-77
2021/05/25 09:47:00;;;;;;;;;;;28.10;99.90;;;;;;1805023;78;20198;-79
2021/05/25 09:49:30;;;;;;;;;;;28.00;99.90;;;;;;1810208;78;20281;-85
2021/05/25 09:52:00;;;;;;;;;;;28.00;99.90;;;;;;1810946;78;20161;-85
2021/05/25 09:54:32;;;;;;;;;;;28.00;99.90;;;;;;1804501;78;20235;-83
2021/05/25 09:57:03;;;;;;;;;;;27.90;99.90;;;;;;1809250;78;20625;-83
2021/05/25 09:59:34;;;;;;;;;;;27.90;99.90;;;;;;1797942;78;20175;-84
2021/05/25 10:02:05;;;;;;;;;;;27.90;99.90;;;;;;1799376;78;20193;-84
2021/05/25 10:04:36;;;;;;;;;;;27.90;99.90;;;;;;1774034;80;20479;-84
2021/05/25 10:07:06;;;;;;;;;;;27.90;99.90;;;;;;1808608;78;20420;-84
2021/05/25 10:09:39;;;;;;;;;;;27.90;99.90;;;;;;1775543;80;20210;-86
2021/05/25 10:12:07;;;;;;;;;;;27.90;99.90;;;;;;1801442;78;20196;-83
2021/05/25 10:14:37;;;;;;;;;;;27.90;99.90;;;;;;1812502;78;20421;-84
2021/05/25 10:17:07;;;;;;;;;;;27.90;99.90;;;;;;1806056;78;20192;-84
2021/05/25 10:19:36;;;;;;;;;;;27.90;99.90;;;;;;1805026;78;20129;-83
2021/05/25 10:22:07;;;;;;;;;;;27.90;99.90;;;;;;1795441;78;20247;-83
2021/05/25 10:24:37;;;;;;;;;;;27.90;99.90;;;;;;1799413;78;20305;-84
2021/05/25 10:27:07;;;;;;;;;;;27.90;99.90;;;;;;1780234;80;20186;-85
2021/05/25 10:29:40;;;;;;;;;;;27.90;99.90;;;;;;1777639;80;20438;-84
2021/05/25 10:32:10;;;;;;;;;;;28.00;99.90;;;;;;1838415;77;20167;-85
2021/05/25 10:34:41;;;;;;;;;;;28.00;99.90;;;;;;1803479;78;20178;-83
2021/05/25 10:37:12;;;;;;;;;;;28.00;99.90;;;;;;1833334;78;20183;-83
2021/05/25 10:39:44;;;;;;;;;;;28.00;99.90;;;;;;1833449;77;20451;-84
2021/05/25 10:42:15;;;;;;;;;;;28.10;99.90;;;;;;1829055;77;20709;-84
2021/05/25 10:44:46;;;;;;;;;;;28.10;99.90;;;;;;1832370;77;20239;-84
2021/05/25 10:47:18;;;;;;;;;;;28.10;99.90;;;;;;1826777;78;20230;-84
2021/05/25 10:49:53;;;;;;;;;;;28.10;99.90;;;;;;1829315;77;20243;-83
2021/05/25 10:52:23;;;;;;;;;;;28.10;99.90;;;;;;1826011;77;20185;-84
2021/05/25 10:54:54;;;;;;;;;;;28.00;99.60;;;;;;1841370;77;20203;-84
2021/05/25 10:57:26;;;;;;;;;;;28.00;99.40;;;;;;1834208;77;20508;-84
2021/05/25 10:59:56;;;;;;;;;;;28.10;99.50;;;;;;1830574;77;20490;-84
2021/05/25 11:02:27;;;;;;;;;;;28.10;99.30;;;;;;1827690;77;20141;-84
2021/05/25 11:04:57;;;;;;;;;;;28.10;99.30;;;;;;1826205;77;20214;-85
2021/05/25 11:07:28;;;;;;;;;;;28.10;99.30;;;;;;1829627;77;20268;-84
2021/05/25 11:09:59;;;;;;;;;;;28.10;99.70;;;;;;1780332;79;20235;-85
2021/05/25 11:12:29;;;;;;;;;;;28.10;99.90;;;;;;1813378;78;20189;-85
2021/05/25 11:15:03;;;;;;;;;;;28.10;99.90;;;;;;1799143;78;20246;-84
2021/05/25 11:17:34;;;;;;;;;;;28.10;99.90;;;;;;1797163;78;20461;-84
2021/05/25 11:20:12;;;;;;;;;;;28.10;99.70;;;;;;1804237;78;20363;-84
2021/05/25 11:22:37;;;;;;;;;;;28.10;99.80;;;;;;1807483;78;20205;-84
2021/05/25 11:25:10;;;;;;;;;;;28.10;99.90;;;;;;1808725;78;20245;-84
2021/05/25 11:27:45;;;;;;;;;;;28.10;99.90;;;;;;1817063;78;20137;-84
2021/05/25 11:30:19;;;;;;;;;;;28.10;99.90;;;;;;1812139;78;20252;-86
2021/05/25 11:33:02;;;;;;;;;;;28.00;99.90;;;;;;1777389;81;20193;-84
2021/05/25 11:35:37;;;;;;;;;;;28.00;99.90;;;;;;1784530;79;20186;-84
2021/05/25 11:38:13;;;;;;;;;;;28.00;99.90;;;;;;1810313;78;20414;-85
2021/05/25 11:40:43;;;;;;;;;;;28.00;99.90;;;;;;1810214;78;20224;-84
2021/05/25 11:43:16;;;;;;;;;;;27.90;99.90;;;;;;1799364;78;20232;-84
2021/05/25 11:45:48;;;;;;;;;;;27.90;99.90;;;;;;1811780;78;20217;-83
2021/05/25 11:48:23;;;;;;;;;;;27.90;99.90;;;;;;1806289;78;20224;-85
2021/05/25 11:50:57;;;;;;;;;;;27.90;99.90;;;;;;1808375;77;20147;-82
2021/05/25 11:53:29;;;;;;;;;;;27.90;99.90;;;;;;1816223;78;20171;-83
2021/05/25 11:55:59;;;;;;;;;;;27.80;99.90;;;;;;1815410;78;20126;-84
2021/05/25 11:58:34;;;;;;;;;;;27.80;99.90;;;;;;1803193;78;20310;-84
2021/05/25 12:01:05;;;;;;;;;;;27.80;99.90;;;;;;1806863;78;20637;-84
2021/05/25 12:03:41;;;;;;;;;;;27.80;99.90;;;;;;1806346;78;20201;-84
2021/05/25 12:06:12;;;;;;;;;;;27.70;99.90;;;;;;1803652;78;20206;-86
2021/05/25 12:08:42;;;;;;;;;;;27.70;99.90;;;;;;1806577;78;20244;-85
2021/05/25 12:11:12;;;;;;;;;;;27.70;99.90;;;;;;1805114;78;20138;-86
2021/05/25 12:13:43;;;;;;;;;;;27.70;99.90;;;;;;1816633;77;20333;-83
2021/05/25 12:16:14;;;;;;;;;;;27.60;99.90;;;;;;1820448;78;20214;-84
2021/05/25 12:18:44;;;;;;;;;;;27.60;99.90;;;;;;1809156;78;20178;-84
2021/05/25 12:21:14;;;;;;;;;;;27.60;99.90;;;;;;1801844;78;20261;-84
2021/05/25 12:23:45;;;;;;;;;;;27.60;99.90;;;;;;1800134;78;20186;-85
2021/05/25 12:26:19;;;;;;;;;;;27.60;99.90;;;;;;1802898;78;20198;-83
2021/05/25 12:28:51;;;;;;;;;;;27.50;99.90;;;;;;1827073;77;20479;-81
2021/05/25 12:31:21;;;;;;;;;;;27.50;99.90;;;;;;1825048;77;20683;-80
2021/05/25 12:33:53;;;;;;;;;;;27.50;99.90;;;;;;1812965;78;20579;-87
2021/05/25 12:36:29;;;;;;;;;;;27.50;99.90;;;;;;1827373;77;20663;-84
2021/05/25 12:38:56;;;;;;;;;;;27.50;99.90;;;;;;1824290;77;20176;-83
2021/05/25 12:41:26;;;;;;;;;;;27.40;99.90;;;;;;1798165;78;20198;-84
2021/05/25 12:43:57;;;;;;;;;;;27.40;99.90;;;;;;1825768;77;20308;-83
2021/05/25 12:46:27;;;;;;;;;;;27.40;99.90;;;;;;1804216;78;20465;-83
2021/05/25 12:48:56;;;;;;;;;;;27.40;99.90;;;;;;1816114;78;20256;-83
2021/05/25 12:51:27;;;;;;;;;;;27.40;99.90;;;;;;1792134;79;20139;-84
2021/05/25 12:53:59;;;;;;;;;;;27.40;99.90;;;;;;1788678;79;20252;-84
2021/05/25 12:56:29;;;;;;;;;;;27.30;99.90;;;;;;1787039;79;20278;-83
2021/05/25 12:58:59;;;;;;;;;;;27.40;99.90;;;;;;1786289;79;20223;-84
2021/05/25 13:01:31;;;;;;;;;;;27.40;99.90;;;;;;1787036;79;20216;-84
2021/05/25 13:04:01;;;;;;;;;;;27.40;99.90;;;;;;1787438;79;20155;-84
2021/05/25 13:09:03;;;;;;;;;;;27.30;99.90;;;;;;1793403;79;20158;-83
2021/05/25 13:11:33;;;;;;;;;;;27.30;99.90;;;;;;1786937;79;20173;-83
2021/05/25 13:14:03;;;;;;;;;;;27.30;99.90;;;;;;1792158;79;20508;-84
2021/05/25 13:16:32;;;;;;;;;;;27.30;99.90;;;;;;1796203;79;20318;-84
2021/05/25 13:19:02;;;;;;;;;;;27.30;99.90;;;;;;1790390;79;20234;-83
2021/05/25 13:21:33;;;;;;;;;;;27.30;99.90;;;;;;1788404;79;20604;-83
2021/05/25 13:24:04;;;;;;;;;;;27.30;99.90;;;;;;1789406;79;20154;-84
2021/05/25 13:26:37;;;;;;;;;;;27.40;99.90;;;;;;1790869;79;20171;-84
2021/05/25 13:29:09;;;;;;;;;;;27.40;99.90;;;;;;1787563;79;20139;-83
2021/05/25 13:31:40;;;;;;;;;;;27.40;99.90;;;;;;1784188;79;20626;-84
2021/05/25 13:34:11;;;;;;;;;;;27.30;99.90;;;;;;1791505;79;20197;-82
2021/05/25 13:36:42;;;;;;;;;;;27.30;99.90;;;;;;1793412;79;20598;-85
2021/05/25 13:39:13;;;;;;;;;;;27.30;99.90;;;;;;1790923;79;20209;-84
2021/05/25 13:41:47;;;;;;;;;;;27.40;99.90;;;;;;1785443;79;20243;-84
2021/05/25 13:44:17;;;;;;;;;;;27.40;99.90;;;;;;1775055;79;20228;-84
2021/05/25 13:46:46;;;;;;;;;;;27.40;99.90;;;;;;1786008;79;20244;-84
2021/05/25 13:49:16;;;;;;;;;;;27.40;99.90;;;;;;1812584;78;20540;-84
2021/05/25 13:51:50;;;;;;;;;;;27.40;99.90;;;;;;1790828;79;20223;-84
2021/05/25 13:54:19;;;;;;;;;;;27.40;99.90;;;;;;1791675;79;20139;-84
2021/05/25 13:56:54;;;;;;;;;;;27.40;99.90;;;;;;1783836;79;20192;-84
2021/05/25 13:59:29;;;;;;;;;;;27.40;99.90;;;;;;1846265;77;20257;-83
2021/05/25 14:01:51;;;;;;;;;;;27.40;99.90;;;;;;1842745;77;20206;-85
2021/05/25 14:04:21;;;;;;;;;;;27.40;99.90;;;;;;1841935;77;20203;-90
2021/05/25 14:06:54;;;;;;;;;;;27.40;99.90;;;;;;1855239;77;20256;-88
2021/05/25 14:09:25;;;;;;;;;;;27.40;99.90;;;;;;1837680;77;20224;-90
2021/05/25 14:11:55;;;;;;;;;;;27.50;99.90;;;;;;1849157;77;20202;-88
2021/05/25 14:14:26;;;;;;;;;;;27.50;99.90;;;;;;1819750;78;20233;-89
2021/05/25 14:16:55;;;;;;;;;;;27.40;99.90;;;;;;1776125;79;20164;-91
2021/05/25 14:19:25;;;;;;;;;;;27.50;99.90;;;;;;1789751;79;20287;-89
2021/05/25 14:21:55;;;;;;;;;;;27.50;99.90;;;;;;1797218;79;20195;-88
2021/05/25 14:24:24;;;;;;;;;;;27.50;99.90;;;;;;1799017;79;20268;-88
2021/05/25 14:27:03;;;;;;;;;;;27.50;99.90;;;;;;1809655;79;20205;-89
2021/05/25 14:29:33;;;;;;;;;;;27.50;99.90;;;;;;1818852;78;20181;-90
2021/05/25 14:32:03;;;;;;;;;;;27.50;99.90;;;;;;1810042;79;20145;-88
2021/05/25 14:34:32;;;;;;;;;;;27.50;99.90;;;;;;1813581;78;20199;-90
2021/05/25 14:37:03;;;;;;;;;;;27.40;99.90;;;;;;1780197;79;20164;-87
2021/05/25 14:39:37;;;;;;;;;;;27.40;99.90;;;;;;1823243;78;20178;-87
2021/05/25 14:42:07;;;;;;;;;;;27.40;99.90;;;;;;1817956;77;20180;-89
2021/05/25 14:44:37;;;;;;;;;;;27.40;99.90;;;;;;1824437;77;20249;-88
2021/05/25 14:47:07;;;;;;;;;;;27.40;99.90;;;;;;1812781;79;20222;-89